Wetterstation Vordersexau
Wetterdaten: Woche 28.10.13 - 03.11.13 (KW44)
Datum Zeit Temp. A. Feuchte A. Luftdruck Regen Wind Richtung Taupunkt Windchill Windben
28.10.2013 00:00 15,4 C 70 % 1011,9 hPa 0,0 l/m 3,2 km/h W-SW 10,0 C 15,4 C 1,8 km/h
28.10.2013 01:00 16,0 C 68 % 1012,2 hPa 0,0 l/m 24,0 km/h W-NW 10,1 C 10,2 C 13,3 km/h
28.10.2013 02:00 15,9 C 67 % 1011,6 hPa 0,0 l/m 13,0 km/h W-NW 9,8 C 12,9 C 7,2 km/h
28.10.2013 03:00 16,0 C 64 % 1010,8 hPa 0,0 l/m 22,0 km/h S 9,2 C 10,6 C 12,2 km/h
28.10.2013 04:00 15,9 C 64 % 1009,3 hPa 0,0 l/m 0,0 km/h O-SO 9,1 C 15,9 C 0,0 km/h
28.10.2013 05:00 15,4 C 65 % 1006,7 hPa 0,0 l/m 0,0 km/h O-NO 8,9 C 15,4 C 0,0 km/h
28.10.2013 06:00 14,1 C 72 % 1005,1 hPa 0,0 l/m 0,0 km/h SO 9,1 C 14,1 C 0,0 km/h
28.10.2013 07:00 13,4 C 75 % 1003,9 hPa 0,0 l/m 0,0 km/h NO 9,1 C 13,4 C 0,0 km/h
28.10.2013 08:00 15,1 C 71 % 1004,7 hPa 0,0 l/m 0,0 km/h NO 9,9 C 15,1 C 0,0 km/h
28.10.2013 09:00 17,9 C 62 % 1005,5 hPa 0,0 l/m 0,0 km/h W 10,5 C 17,9 C 0,0 km/h
28.10.2013 10:00 24,9 C 41 % 1005,8 hPa 0,0 l/m 19,4 km/h W 10,7 C 22,6 C 10,8 km/h
28.10.2013 11:00 24,6 C 41 % 1005,5 hPa 0,0 l/m 18,8 km/h W-NW 10,5 C 22,3 C 10,4 km/h
28.10.2013 12:00 24,6 C 41 % 1005,0 hPa 0,0 l/m 23,3 km/h W-NW 10,5 C 21,8 C 13,0 km/h
28.10.2013 13:00 24,8 C 39 % 1005,0 hPa 0,0 l/m 24,0 km/h W-NW 9,9 C 22,0 C 13,3 km/h
28.10.2013 14:00 22,3 C 41 % 1005,0 hPa 0,0 l/m 13,0 km/h W-NW 8,4 C 20,5 C 7,2 km/h
28.10.2013 15:00 20,6 C 46 % 1006,1 hPa 0,0 l/m 29,2 km/h W 8,6 C 15,7 C 16,2 km/h
28.10.2013 16:00 18,9 C 55 % 1007,0 hPa 0,0 l/m 5,8 km/h W 9,7 C 18,9 C 3,2 km/h
28.10.2013 17:00 17,4 C 64 % 1007,8 hPa 0,0 l/m 13,0 km/h W-NW 10,5 C 14,7 C 7,2 km/h
28.10.2013 18:00 16,2 C 71 % 1008,7 hPa 0,0 l/m 5,8 km/h W 10,9 C 16,2 C 3,2 km/h
28.10.2013 19:00 13,9 C 81 % 1009,7 hPa 0,0 l/m 0,0 km/h W 10,7 C 13,9 C 0,0 km/h
28.10.2013 20:00 13,1 C 83 % 1010,2 hPa 1,0 l/m 6,5 km/h S-SO 10,3 C 13,1 C 3,6 km/h
28.10.2013 21:00 12,2 C 84 % 1011,1 hPa 0,0 l/m 1,9 km/h W-SW 9,6 C 12,2 C 1,1 km/h
28.10.2013 22:00 12,2 C 84 % 1011,3 hPa 0,0 l/m 1,3 km/h SW 9,6 C 12,2 C 0,7 km/h
28.10.2013 23:00 11,6 C 84 % 1012,2 hPa 0,5 l/m 7,1 km/h S 9,0 C 11,1 C 4,0 km/h
29.10.2013 00:00 10,4 C 84 % 1012,5 hPa 1,6 l/m 24,6 km/h S 7,8 C 2,5 C 13,7 km/h
29.10.2013 01:00 9,9 C 84 % 1012,8 hPa 0,5 l/m 4,5 km/h SW 7,3 C 9,9 C 2,5 km/h
29.10.2013 02:00 9,8 C 84 % 1012,5 hPa 0,5 l/m 9,7 km/h S-SW 7,2 C 7,6 C 5,4 km/h
29.10.2013 03:00 10,5 C 78 % 1012,6 hPa 0,0 l/m 14,3 km/h S-SW 6,8 C 6,0 C 7,9 km/h
29.10.2013 04:00 10,9 C 76 % 1012,6 hPa 0,0 l/m 16,2 km/h W-SW 6,8 C 5,8 C 9,0 km/h
29.10.2013 05:00 11,2 C 77 % 1013,2 hPa 0,0 l/m 1,9 km/h W 7,3 C 11,2 C 1,1 km/h
29.10.2013 06:00 11,1 C 77 % 1013,9 hPa 0,0 l/m 16,8 km/h N-NW 7,2 C 5,8 C 9,4 km/h
29.10.2013 07:00 11,1 C 76 % 1014,5 hPa 0,0 l/m 11,0 km/h SW 7,0 C 8,3 C 6,1 km/h
29.10.2013 08:00 10,6 C 77 % 1015,1 hPa 0,0 l/m 0,0 km/h W-SW 6,7 C 10,6 C 0,0 km/h
29.10.2013 09:00 11,9 C 75 % 1015,5 hPa 0,0 l/m 2,6 km/h W-SW 7,6 C 11,9 C 1,4 km/h
29.10.2013 10:00 14,3 C 68 % 1015,5 hPa 0,0 l/m 16,2 km/h SW 8,5 C 9,9 C 9,0 km/h
29.10.2013 11:00 16,6 C 61 % 1015,7 hPa 0,0 l/m 23,3 km/h W 9,0 C 11,1 C 13,0 km/h
29.10.2013 12:00 17,4 C 56 % 1015,3 hPa 0,0 l/m 1,3 km/h W-SW 8,5 C 17,4 C 0,7 km/h
29.10.2013 13:00 15,8 C 57 % 1015,4 hPa 0,5 l/m 25,9 km/h W-SW 7,3 C 9,5 C 14,4 km/h
29.10.2013 14:00 17,9 C 51 % 1015,1 hPa 0,0 l/m 3,9 km/h W-NW 7,6 C 17,9 C 2,2 km/h
29.10.2013 15:00 14,1 C 60 % 1015,2 hPa 0,0 l/m 1,3 km/h W 6,5 C 14,1 C 0,7 km/h
29.10.2013 16:00 13,3 C 61 % 1015,4 hPa 0,0 l/m 0,0 km/h W-SW 5,9 C 13,3 C 0,0 km/h
29.10.2013 17:00 11,2 C 67 % 1015,6 hPa 0,0 l/m 0,0 km/h SO 5,3 C 11,2 C 0,0 km/h
29.10.2013 18:00 8,9 C 74 % 1016,3 hPa 0,0 l/m 0,0 km/h NO 4,5 C 8,9 C 0,0 km/h
29.10.2013 19:00 7,8 C 82 % 1016,7 hPa 0,0 l/m 0,0 km/h NO 4,9 C 7,8 C 0,0 km/h
29.10.2013 20:00 6,6 C 83 % 1017,0 hPa 0,0 l/m 0,0 km/h O-SO 3,9 C 6,6 C 0,0 km/h
29.10.2013 21:00 5,9 C 84 % 1017,7 hPa 0,0 l/m 0,0 km/h SO 3,4 C 5,9 C 0,0 km/h
29.10.2013 22:00 5,4 C 84 % 1018,1 hPa 0,0 l/m 1,9 km/h SO 2,9 C 5,4 C 1,1 km/h
29.10.2013 23:00 5,6 C 84 % 1018,5 hPa 0,0 l/m 0,0 km/h SO 3,1 C 5,6 C 0,0 km/h
30.10.2013 00:00 5,3 C 83 % 1018,6 hPa 0,0 l/m 0,0 km/h SO 2,7 C 5,3 C 0,0 km/h
30.10.2013 01:00 5,2 C 83 % 1019,2 hPa 0,0 l/m 0,0 km/h SO 2,6 C 5,2 C 0,0 km/h
30.10.2013 02:00 5,5 C 82 % 1019,6 hPa 0,0 l/m 0,0 km/h S-SO 2,7 C 5,5 C 0,0 km/h
30.10.2013 03:00 6,4 C 81 % 1020,0 hPa 0,0 l/m 0,0 km/h SO 3,4 C 6,4 C 0,0 km/h
30.10.2013 04:00 6,6 C 80 % 1020,4 hPa 0,0 l/m 0,0 km/h S-SO 3,4 C 6,6 C 0,0 km/h
30.10.2013 05:00 5,3 C 81 % 1020,5 hPa 0,0 l/m 0,0 km/h SO 2,3 C 5,3 C 0,0 km/h
30.10.2013 06:00 4,1 C 81 % 1021,2 hPa 0,0 l/m 0,0 km/h SO 1,1 C 4,1 C 0,0 km/h
30.10.2013 07:00 5,8 C 78 % 1021,8 hPa 0,0 l/m 0,0 km/h S-SO 2,3 C 5,8 C 0,0 km/h
30.10.2013 08:00 6,2 C 77 % 1022,4 hPa 0,0 l/m 0,0 km/h NO 2,5 C 6,2 C 0,0 km/h
30.10.2013 09:00 14,5 C 78 % 1023,0 hPa 0,0 l/m 0,0 km/h N-NW 10,7 C 14,5 C 0,0 km/h
30.10.2013 10:00 17,8 C 63 % 1023,4 hPa 0,0 l/m 0,0 km/h W-SW 10,7 C 17,8 C 0,0 km/h
30.10.2013 11:00 16,9 C 56 % 1023,6 hPa 0,0 l/m 1,3 km/h S-SO 8,1 C 16,9 C 0,7 km/h
30.10.2013 12:00 17,8 C 54 % 1023,1 hPa 0,0 l/m 1,3 km/h NW 8,4 C 17,8 C 0,7 km/h
30.10.2013 13:00 17,3 C 45 % 1022,6 hPa 0,0 l/m 11,7 km/h N-NW 5,3 C 15,0 C 6,5 km/h
30.10.2013 14:00 18,2 C 41 % 1022,3 hPa 0,0 l/m 11,0 km/h NO 4,7 C 16,3 C 6,1 km/h
30.10.2013 15:00 19,7 C 38 % 1022,1 hPa 0,0 l/m 8,4 km/h NO 5,0 C 18,9 C 4,7 km/h
30.10.2013 16:00 19,9 C 36 % 1022,1 hPa 0,0 l/m 0,0 km/h O-SO 4,4 C 19,9 C 0,0 km/h
30.10.2013 17:00 10,6 C 54 % 1022,4 hPa 0,0 l/m 0,0 km/h SO 1,7 C 10,6 C 0,0 km/h
30.10.2013 18:00 6,2 C 71 % 1022,8 hPa 0,0 l/m 0,0 km/h SO 1,3 C 6,2 C 0,0 km/h
30.10.2013 19:00 4,5 C 78 % 1023,3 hPa 0,0 l/m 0,0 km/h O-SO 1,0 C 4,5 C 0,0 km/h
30.10.2013 20:00 4,3 C 83 % 1023,5 hPa 0,0 l/m 0,0 km/h O-NO 1,7 C 4,3 C 0,0 km/h
30.10.2013 21:00 3,8 C 84 % 1023,9 hPa 0,0 l/m 0,0 km/h O-NO 1,4 C 3,8 C 0,0 km/h
30.10.2013 22:00 2,6 C 85 % 1024,1 hPa 0,0 l/m 0,0 km/h S-SO 0,3 C 2,6 C 0,0 km/h
30.10.2013 23:00 2,2 C 85 % 1023,8 hPa 0,0 l/m 0,0 km/h SO -0,1 C 2,2 C 0,0 km/h
31.10.2013 00:00 1,6 C 85 % 1024,2 hPa 0,0 l/m 0,0 km/h NO -0,6 C 1,6 C 0,0 km/h
31.10.2013 01:00 1,3 C 85 % 1024,0 hPa 0,0 l/m 0,0 km/h NO -0,9 C 1,3 C 0,0 km/h
31.10.2013 02:00 0,4 C 85 % 1024,0 hPa 0,0 l/m 0,0 km/h NO -1,8 C 0,4 C 0,0 km/h
31.10.2013 03:00 0,8 C 84 % 1023,8 hPa 0,0 l/m 0,0 km/h NO -1,6 C 0,8 C 0,0 km/h
31.10.2013 04:00 -0,1 C 84 % 1023,3 hPa 0,0 l/m 0,0 km/h NO -2,5 C -0,1 C 0,0 km/h
31.10.2013 05:00 0,1 C 84 % 1023,0 hPa 0,0 l/m 0,0 km/h SO -2,3 C 0,1 C 0,0 km/h
31.10.2013 06:00 -0,4 C 84 % 1023,0 hPa 0,0 l/m 0,0 km/h S-SO -2,8 C -0,4 C 0,0 km/h
31.10.2013 07:00 -1,1 C 83 % 1023,2 hPa 0,0 l/m 0,0 km/h S-SO -3,6 C -1,1 C 0,0 km/h
31.10.2013 08:00 1,5 C 80 % 1023,4 hPa 0,0 l/m 0,0 km/h W -1,6 C 1,5 C 0,0 km/h
31.10.2013 09:00 4,2 C 78 % 1023,6 hPa 0,0 l/m 0,0 km/h NW 0,7 C 4,2 C 0,0 km/h
31.10.2013 10:00 5,6 C 84 % 1023,6 hPa 0,0 l/m 0,0 km/h N-NW 3,1 C 5,6 C 0,0 km/h
31.10.2013 11:00 12,5 C 73 % 1023,7 hPa 0,0 l/m 0,0 km/h N-NW 7,8 C 12,5 C 0,0 km/h
31.10.2013 12:00 13,8 C 65 % 1023,0 hPa 0,0 l/m 2,6 km/h N-NW 7,3 C 13,8 C 1,4 km/h
31.10.2013 13:00 14,3 C 61 % 1021,8 hPa 0,0 l/m 0,0 km/h N-NW 6,9 C 14,3 C 0,0 km/h
31.10.2013 14:00 17,3 C 54 % 1021,6 hPa 0,0 l/m 0,0 km/h W 7,9 C 17,3 C 0,0 km/h
31.10.2013 15:00 20,1 C 47 % 1020,9 hPa 0,0 l/m 0,0 km/h W 8,4 C 20,1 C 0,0 km/h
31.10.2013 16:00 19,5 C 46 % 1020,5 hPa 0,0 l/m 0,0 km/h N-NW 7,6 C 19,5 C 0,0 km/h
31.10.2013 17:00 9,8 C 63 % 1021,0 hPa 0,0 l/m 0,0 km/h N-NW 3,1 C 9,8 C 0,0 km/h
31.10.2013 18:00 5,8 C 80 % 1021,2 hPa 0,0 l/m 0,0 km/h SO 2,6 C 5,8 C 0,0 km/h
31.10.2013 19:00 4,2 C 83 % 1021,3 hPa 0,0 l/m 0,0 km/h SO 1,6 C 4,2 C 0,0 km/h
31.10.2013 20:00 3,4 C 84 % 1021,8 hPa 0,0 l/m 0,0 km/h S-SO 1,0 C 3,4 C 0,0 km/h
31.10.2013 21:00 3,2 C 85 % 1021,7 hPa 0,0 l/m 0,0 km/h S-SO 0,9 C 3,2 C 0,0 km/h
31.10.2013 22:00 2,8 C 85 % 1021,8 hPa 0,0 l/m 1,9 km/h SO 0,5 C 2,8 C 1,1 km/h
31.10.2013 23:00 2,5 C 84 % 1021,5 hPa 0,0 l/m 0,0 km/h SO 0,1 C 2,5 C 0,0 km/h
01.11.2013 00:00 1,9 C 84 % 1021,3 hPa 0,0 l/m 0,0 km/h SO -0,5 C 1,9 C 0,0 km/h
01.11.2013 01:00 2,3 C 83 % 1020,7 hPa 0,0 l/m 0,0 km/h S-SO -0,3 C 2,3 C 0,0 km/h
01.11.2013 02:00 1,8 C 83 % 1020,6 hPa 0,0 l/m 0,0 km/h S-SO -0,8 C 1,8 C 0,0 km/h
01.11.2013 03:00 1,8 C 82 % 1020,3 hPa 0,0 l/m 0,0 km/h O-SO -0,9 C 1,8 C 0,0 km/h
01.11.2013 04:00 1,4 C 82 % 1020,3 hPa 0,0 l/m 0,0 km/h SO -1,3 C 1,4 C 0,0 km/h
01.11.2013 05:00 2,4 C 80 % 1019,9 hPa 0,0 l/m 0,0 km/h O -0,7 C 2,4 C 0,0 km/h
01.11.2013 06:00 2,8 C 79 % 1019,4 hPa 0,0 l/m 0,0 km/h SO -0,5 C 2,8 C 0,0 km/h
01.11.2013 07:00 3,0 C 78 % 1019,2 hPa 0,0 l/m 0,0 km/h N -0,5 C 3,0 C 0,0 km/h
01.11.2013 08:00 3,9 C 77 % 1019,4 hPa 0,0 l/m 0,6 km/h O-NO 0,2 C 3,9 C 0,4 km/h
01.11.2013 09:00 5,3 C 76 % 1018,7 hPa 0,0 l/m 0,0 km/h N 1,4 C 5,3 C 0,0 km/h
01.11.2013 10:00 6,9 C 79 % 1018,6 hPa 0,0 l/m 0,0 km/h N-NW 3,5 C 6,9 C 0,0 km/h
01.11.2013 11:00 10,4 C 83 % 1017,9 hPa 0,0 l/m 0,0 km/h W 7,6 C 10,4 C 0,0 km/h
01.11.2013 12:00 12,6 C 80 % 1016,7 hPa 0,0 l/m 0,0 km/h N 9,2 C 12,6 C 0,0 km/h
01.11.2013 13:00 12,5 C 75 % 1016,4 hPa 0,0 l/m 0,0 km/h W-NW 8,2 C 12,5 C 0,0 km/h
01.11.2013 14:00 12,6 C 74 % 1015,4 hPa 0,0 l/m 0,0 km/h NW 8,1 C 12,6 C 0,0 km/h
01.11.2013 15:00 11,6 C 76 % 1014,9 hPa 0,0 l/m 0,0 km/h N-NW 7,5 C 11,6 C 0,0 km/h
01.11.2013 16:00 10,6 C 79 % 1014,0 hPa 0,0 l/m 0,0 km/h N-NW 7,1 C 10,6 C 0,0 km/h
01.11.2013 17:00 9,9 C 82 % 1013,7 hPa 0,0 l/m 0,0 km/h NO 7,0 C 9,9 C 0,0 km/h
01.11.2013 18:00 9,6 C 84 % 1013,6 hPa 0,0 l/m 0,0 km/h NO 7,0 C 9,6 C 0,0 km/h
01.11.2013 19:00 9,9 C 85 % 1013,0 hPa 0,0 l/m 0,0 km/h O-NO 7,5 C 9,9 C 0,0 km/h
01.11.2013 20:00 9,8 C 85 % 1012,0 hPa 0,0 l/m 0,0 km/h SO 7,4 C 9,8 C 0,0 km/h
01.11.2013 21:00 10,1 C 85 % 1011,6 hPa 0,0 l/m 1,9 km/h SO 7,7 C 10,1 C 1,1 km/h
01.11.2013 22:00 9,8 C 84 % 1010,7 hPa 0,0 l/m 0,0 km/h NO 7,2 C 9,8 C 0,0 km/h
01.11.2013 23:00 9,9 C 83 % 1010,0 hPa 0,0 l/m 1,9 km/h N-NO 7,2 C 9,9 C 1,1 km/h
02.11.2013 00:00 9,8 C 83 % 1009,2 hPa 0,0 l/m 0,0 km/h N-NO 7,1 C 9,8 C 0,0 km/h
02.11.2013 01:00 9,8 C 82 % 1008,0 hPa 0,0 l/m 0,0 km/h S-SO 6,9 C 9,8 C 0,0 km/h
02.11.2013 02:00 9,8 C 81 % 1007,3 hPa 0,0 l/m 0,0 km/h S-SW 6,7 C 9,8 C 0,0 km/h
02.11.2013 03:00 10,4 C 81 % 1007,3 hPa 0,0 l/m 6,5 km/h S-SO 7,3 C 10,4 C 3,6 km/h
02.11.2013 04:00 11,6 C 83 % 1006,2 hPa 0,5 l/m 0,0 km/h S 8,8 C 11,6 C 0,0 km/h
02.11.2013 05:00 11,1 C 81 % 1006,4 hPa 1,0 l/m 7,1 km/h S-SW 8,0 C 10,6 C 4,0 km/h
02.11.2013 06:00 12,3 C 83 % 1006,1 hPa 0,5 l/m 13,0 km/h W-SW 9,5 C 8,7 C 7,2 km/h
02.11.2013 07:00 13,8 C 82 % 1005,9 hPa 0,0 l/m 3,2 km/h W-NW 10,8 C 13,8 C 1,8 km/h
02.11.2013 08:00 14,6 C 79 % 1006,7 hPa 0,0 l/m 18,1 km/h W 11,0 C 9,7 C 10,1 km/h
02.11.2013 09:00 16,1 C 75 % 1006,7 hPa 0,0 l/m 24,0 km/h W 11,7 C 10,3 C 13,3 km/h
02.11.2013 10:00 15,9 C 73 % 1007,1 hPa 0,0 l/m 22,0 km/h W-NW 11,1 C 10,4 C 12,2 km/h
02.11.2013 11:00 16,1 C 73 % 1007,6 hPa 0,0 l/m 18,8 km/h W 11,3 C 11,5 C 10,4 km/h
02.11.2013 12:00 16,1 C 75 % 1007,4 hPa 0,0 l/m 12,3 km/h W-NW 11,7 C 13,4 C 6,8 km/h
02.11.2013 13:00 17,5 C 70 % 1007,2 hPa 0,0 l/m 25,3 km/h W-NW 12,0 C 11,9 C 14,0 km/h
02.11.2013 14:00 16,3 C 74 % 1007,4 hPa 0,0 l/m 24,6 km/h W 11,7 C 10,4 C 13,7 km/h
02.11.2013 15:00 15,9 C 75 % 1007,6 hPa 0,0 l/m 31,8 km/h W 11,5 C 8,7 C 17,6 km/h
02.11.2013 16:00 15,9 C 73 % 1007,6 hPa 0,0 l/m 29,2 km/h W-SW 11,1 C 9,1 C 16,2 km/h
02.11.2013 17:00 15,1 C 74 % 1007,8 hPa 0,0 l/m 0,0 km/h W-SW 10,5 C 15,1 C 0,0 km/h
02.11.2013 18:00 14,2 C 74 % 1007,9 hPa 0,0 l/m 22,7 km/h W-SW 9,6 C 8,0 C 12,6 km/h
02.11.2013 19:00 14,7 C 74 % 1007,7 hPa 0,0 l/m 11,7 km/h W 10,1 C 12,0 C 6,5 km/h
02.11.2013 20:00 14,5 C 74 % 1007,0 hPa 0,0 l/m 8,4 km/h SW 9,9 C 13,4 C 4,7 km/h
02.11.2013 21:00 14,2 C 76 % 1007,2 hPa 0,0 l/m 0,0 km/h W 10,0 C 14,2 C 0,0 km/h
02.11.2013 22:00 14,2 C 77 % 1006,4 hPa 0,0 l/m 7,1 km/h W-SW 10,2 C 13,8 C 4,0 km/h
02.11.2013 23:00 14,9 C 75 % 1005,6 hPa 0,0 l/m 21,4 km/h W-SW 10,5 C 9,3 C 11,9 km/h
03.11.2013 00:00 14,2 C 77 % 1005,2 hPa 0,0 l/m 15,6 km/h SW 10,2 C 10,0 C 8,6 km/h
03.11.2013 01:00 12,1 C 83 % 1005,6 hPa 1,0 l/m 22,0 km/h SW 9,3 C 5,4 C 12,2 km/h
03.11.2013 02:00 11,4 C 81 % 1005,8 hPa 2,1 l/m 21,4 km/h S-SW 8,3 C 4,7 C 11,9 km/h
03.11.2013 03:00 11,4 C 83 % 1004,7 hPa 1,0 l/m 0,0 km/h W-SW 8,6 C 11,4 C 0,0 km/h
03.11.2013 04:00 10,9 C 84 % 1004,3 hPa 0,5 l/m 8,4 km/h W-NW 8,3 C 9,5 C 4,7 km/h
03.11.2013 05:00 11,0 C 83 % 1004,8 hPa 1,6 l/m 22,7 km/h N 8,2 C 3,8 C 12,6 km/h
03.11.2013 06:00 9,6 C 80 % 1005,6 hPa 4,7 l/m 0,0 km/h W 6,3 C 9,6 C 0,0 km/h
03.11.2013 07:00 7,4 C 83 % 1005,9 hPa 3,1 l/m 0,0 km/h W 4,7 C 7,4 C 0,0 km/h
03.11.2013 08:00 7,8 C 85 % 1006,9 hPa 0,0 l/m 22,0 km/h NW 5,4 C -0,2 C 12,2 km/h
03.11.2013 09:00 8,2 C 85 % 1007,0 hPa 0,0 l/m 8,4 km/h W 5,8 C 6,7 C 4,7 km/h
03.11.2013 10:00 7,9 C 81 % 1008,9 hPa 1,6 l/m 0,0 km/h W-SW 4,8 C 7,9 C 0,0 km/h
03.11.2013 11:00 11,4 C 79 % 1010,0 hPa 0,0 l/m 23,3 km/h W 7,9 C 4,2 C 13,0 km/h
03.11.2013 12:00 11,3 C 79 % 1010,1 hPa 0,0 l/m 25,9 km/h W 7,8 C 3,4 C 14,4 km/h
03.11.2013 13:00 10,4 C 72 % 1010,3 hPa 0,0 l/m 14,9 km/h W-NW 5,6 C 5,7 C 8,3 km/h
03.11.2013 14:00 10,5 C 71 % 1010,4 hPa 0,0 l/m 20,1 km/h W 5,5 C 3,9 C 11,2 km/h
03.11.2013 15:00 10,0 C 73 % 1010,5 hPa 0,0 l/m 25,3 km/h W 5,4 C 1,8 C 14,0 km/h
03.11.2013 16:00 11,8 C 69 % 1010,3 hPa 0,0 l/m 0,0 km/h W-SW 6,3 C 11,8 C 0,0 km/h
03.11.2013 17:00 8,1 C 76 % 1010,4 hPa 0,0 l/m 13,0 km/h W 4,1 C 3,8 C 7,2 km/h
03.11.2013 18:00 8,2 C 76 % 1010,7 hPa 0,0 l/m 19,4 km/h W-SW 4,2 C 1,2 C 10,8 km/h
03.11.2013 19:00 8,1 C 76 % 1010,3 hPa 0,0 l/m 22,7 km/h W-SW 4,1 C -0,1 C 12,6 km/h
03.11.2013 20:00 7,6 C 77 % 1010,1 hPa 0,0 l/m 33,7 km/h W 3,8 C -3,5 C 18,7 km/h
03.11.2013 21:00 7,1 C 77 % 1009,2 hPa 0,0 l/m 0,0 km/h N-NW 3,3 C 7,1 C 0,0 km/h
03.11.2013 22:00 6,1 C 78 % 1008,7 hPa 0,0 l/m 0,0 km/h N-NW 2,6 C 6,1 C 0,0 km/h
03.11.2013 23:00 3,8 C 82 % 1007,4 hPa 0,0 l/m 0,0 km/h W 1,0 C 3,8 C 0,0 km/h
Min-Datum _ 31.10.13 30.10.13 28.10.13 - 28.10.13 - 31.10.13 03.11.13 28.10.13
_ Min-Zeit 07:19 16:19 07:19 - 04:19 - 07:19 20:19 04:19
Minimum _ -1,1 C 36 % 1003,9 hPa - 0,0 km/h - -3,6 C -3,5 C 0,0 km/h
Max-Datum _ 28.10.13 30.10.13 31.10.13 03.11.13 03.11.13 - 02.11.13 28.10.13 03.11.13
_ Max-Zeit 10:19 22:19 00:19 06:19 20:19 - 13:19 10:19 20:19
Maximum _ 24,9 C 85 % 1024,2 hPa 4,7 l/m 33,7 km/h
W
- 12,0 C 22,6 C 18,7 km/h
W
Durchschnitt _ 10,6 C 74 % 1014,2 hPa #22,3 l/m 6,4 km/h W 5,9 C 9,1 C 3,6 km/h
www.sexauwetter.de